Terminal Aerodrome Forecast
Issued by NWS Louisville, KY

Home | Current Version | Previous Version | Text Only | Print | Product List | Glossary On
Versions: 1 2 3 4 5 6 7 8 9 10 11 12 13 14 15 16
000
FTUS43 KLMK 250326 AAB
TAFSDF
TAF AMD
KSDF 250326Z 2503/2606 28015G22KT P6SM -SHRA BKN050
     FM250600 28015KT P6SM OVC040
      TEMPO 2511/2514 BKN025
     FM251400 28017G25KT P6SM BKN025
     FM251900 28016G23KT P6SM BKN035
     FM260100 28008KT P6SM SCT040=

USA.gov is the U.S. government's official web portal to all federal, state and local government web resources and services.